createdAt,value
2023-11-30T00:00:14.240Z,101.85
2023-11-30T00:02:40.900Z,100.55
2023-11-30T00:05:09.912Z,100.05
2023-11-30T00:07:36.761Z,103.10
2023-11-30T00:10:04.558Z,101.93
2023-11-30T00:12:31.536Z,103.45
2023-11-30T00:14:58.194Z,103.20
2023-11-30T00:17:24.785Z,107.10
2023-11-30T00:19:51.380Z,101.35
2023-11-30T00:22:17.950Z,101.05
2023-11-30T00:24:44.537Z,105.10
2023-11-30T00:27:11.174Z,105.47
2023-11-30T00:29:37.763Z,104.00
2023-11-30T00:32:04.683Z,103.88
2023-11-30T00:34:31.282Z,100.60
2023-11-30T00:36:57.935Z,104.82
2023-11-30T00:39:24.559Z,111.90
2023-11-30T00:41:51.291Z,107.57
2023-11-30T00:44:19.406Z,100.75
2023-11-30T00:46:46.170Z,104.90
2023-11-30T00:49:12.803Z,99.32
2023-11-30T00:51:39.422Z,100.47
2023-11-30T00:54:06.141Z,106.15
2023-11-30T00:56:32.780Z,104.70
2023-11-30T00:58:59.380Z,104.07
2023-11-30T01:01:26.104Z,102.78
2023-11-30T01:03:52.773Z,103.43
2023-11-30T01:06:19.440Z,104.93
2023-11-30T01:08:46.051Z,106.15
2023-11-30T01:11:12.655Z,102.10
2023-11-30T01:13:39.273Z,101.65
2023-11-30T01:16:06.405Z,102.18
2023-11-30T01:18:33.670Z,102.82
2023-11-30T01:21:00.360Z,105.72
2023-11-30T01:23:27.086Z,108.20
2023-11-30T01:25:53.685Z,101.85
2023-11-30T01:28:20.264Z,107.25
2023-11-30T01:30:46.866Z,105.35
2023-11-30T01:33:13.564Z,99.85
2023-11-30T01:35:40.247Z,106.35
2023-11-30T01:38:06.832Z,104.35
2023-11-30T01:40:33.520Z,103.93
2023-11-30T01:43:00.195Z,101.15
2023-11-30T01:45:26.995Z,102.70
2023-11-30T01:47:53.889Z,104.38
2023-11-30T01:50:20.696Z,103.95
2023-11-30T01:52:48.302Z,102.47
2023-11-30T01:55:15.196Z,99.70
2023-11-30T01:57:42.480Z,104.05
2023-11-30T02:00:11.124Z,100.15
2023-11-30T02:02:37.997Z,106.53
2023-11-30T02:05:04.890Z,101.72
2023-11-30T02:07:31.535Z,111.90
2023-11-30T02:09:58.191Z,104.68
2023-11-30T02:12:24.885Z,105.85
2023-11-30T02:14:51.496Z,100.57
2023-11-30T02:17:18.111Z,101.03
2023-11-30T02:19:44.903Z,103.88
2023-11-30T02:22:11.503Z,103.35
2023-11-30T02:24:38.155Z,101.90
2023-11-30T02:27:04.957Z,102.97
2023-11-30T02:29:31.572Z,101.15
2023-11-30T02:31:58.220Z,106.28
2023-11-30T02:34:24.860Z,103.10
2023-11-30T02:36:51.460Z,102.82
2023-11-30T02:39:18.079Z,103.45
2023-11-30T02:41:44.693Z,100.85
2023-11-30T02:44:11.274Z,99.47
2023-11-30T02:46:37.998Z,101.15
2023-11-30T02:49:04.598Z,107.65
2023-11-30T02:51:31.281Z,102.50
2023-11-30T02:53:57.934Z,117.20
2023-11-30T02:56:24.572Z,102.30
2023-11-30T02:58:51.180Z,99.93
2023-11-30T03:01:17.788Z,98.85
2023-11-30T03:03:44.446Z,104.20
2023-11-30T03:06:12.502Z,103.15
2023-11-30T03:08:39.275Z,99.65
2023-11-30T03:11:06.096Z,104.63
2023-11-30T03:13:32.994Z,99.95
2023-11-30T03:15:59.691Z,104.82
2023-11-30T03:18:26.470Z,104.85
2023-11-30T03:20:53.241Z,99.63
2023-11-30T03:23:19.910Z,104.13
2023-11-30T03:25:47.021Z,104.70
2023-11-30T03:28:13.892Z,102.57
2023-11-30T03:30:40.579Z,103.97
2023-11-30T03:33:07.324Z,102.63
2023-11-30T03:35:33.997Z,103.88
2023-11-30T03:38:00.611Z,107.28
2023-11-30T03:40:27.187Z,101.28
2023-11-30T03:42:53.783Z,104.15
2023-11-30T03:45:20.384Z,106.38
2023-11-30T03:47:47.056Z,100.05
2023-11-30T03:50:13.754Z,106.35
2023-11-30T03:52:40.451Z,101.82
2023-11-30T03:55:07.436Z,107.20
2023-11-30T03:57:34.190Z,103.57
2023-11-30T04:00:00.847Z,105.28
2023-11-30T04:02:27.557Z,99.18
2023-11-30T04:04:54.279Z,101.32
2023-11-30T04:07:20.906Z,100.38
2023-11-30T04:09:48.559Z,105.97
2023-11-30T04:12:15.171Z,105.00
2023-11-30T04:14:41.835Z,101.43
2023-11-30T04:17:08.429Z,104.18
2023-11-30T04:19:35.026Z,104.65
2023-11-30T04:22:01.600Z,99.88
2023-11-30T04:24:28.284Z,104.13
2023-11-30T04:26:54.932Z,101.85
2023-11-30T04:29:21.581Z,105.13
2023-11-30T04:31:48.183Z,104.93
2023-11-30T04:34:14.842Z,104.97
2023-11-30T04:36:41.437Z,105.93
2023-11-30T04:39:08.228Z,105.70
2023-11-30T04:41:34.814Z,103.13
2023-11-30T04:44:01.810Z,107.43
2023-11-30T04:46:28.829Z,105.05
2023-11-30T04:48:55.891Z,102.40
2023-11-30T04:51:22.902Z,102.80
2023-11-30T04:53:50.278Z,103.13
2023-11-30T04:56:17.141Z,108.05
2023-11-30T04:58:43.986Z,105.22
2023-11-30T05:01:10.634Z,105.25
2023-11-30T05:03:37.548Z,105.78
2023-11-30T05:06:04.567Z,107.82
2023-11-30T05:08:31.200Z,103.78
2023-11-30T05:10:59.240Z,103.65
2023-11-30T05:13:25.833Z,103.15
2023-11-30T05:15:52.457Z,103.07
2023-11-30T05:18:19.438Z,101.22
2023-11-30T05:20:46.241Z,103.75
2023-11-30T05:23:12.923Z,103.18
2023-11-30T05:25:40.886Z,105.03
2023-11-30T05:28:07.717Z,105.43
2023-11-30T05:30:34.464Z,104.53
2023-11-30T05:33:01.190Z,103.32
2023-11-30T05:35:27.838Z,103.75
2023-11-30T05:37:54.476Z,103.45
2023-11-30T05:40:21.236Z,106.95
2023-11-30T05:42:48.637Z,103.22
2023-11-30T05:45:15.464Z,106.75
2023-11-30T05:47:42.096Z,109.65
2023-11-30T05:50:10.746Z,101.32
2023-11-30T05:52:37.345Z,105.43
2023-11-30T05:55:05.357Z,107.07
2023-11-30T05:57:32.005Z,99.20
2023-11-30T05:59:58.763Z,103.65
2023-11-30T06:02:27.666Z,102.88
2023-11-30T06:04:55.341Z,102.28
2023-11-30T06:07:22.271Z,103.25
2023-11-30T06:09:48.934Z,103.15
2023-11-30T06:12:15.596Z,98.38
2023-11-30T06:14:42.278Z,102.95
2023-11-30T06:17:08.877Z,105.78
2023-11-30T06:19:35.553Z,105.30
2023-11-30T06:22:02.321Z,102.55
2023-11-30T06:24:30.734Z,101.88
2023-11-30T06:26:59.235Z,101.25
2023-11-30T06:29:26.304Z,99.75
2023-11-30T06:31:52.918Z,104.07
2023-11-30T06:34:19.534Z,102.97
2023-11-30T06:36:46.400Z,108.78
2023-11-30T06:39:13.592Z,104.90
2023-11-30T06:41:40.193Z,104.35
2023-11-30T06:44:06.776Z,105.13
2023-11-30T06:46:33.445Z,102.75
2023-11-30T06:49:00.021Z,102.40
2023-11-30T06:51:26.689Z,104.50
2023-11-30T06:53:53.282Z,100.18
2023-11-30T06:56:19.944Z,99.22
2023-11-30T06:58:46.504Z,101.05
2023-11-30T07:01:13.226Z,100.72
2023-11-30T07:03:42.904Z,101.20
2023-11-30T07:06:10.905Z,99.07
2023-11-30T07:08:37.660Z,103.03
2023-11-30T07:11:08.500Z,100.53
2023-11-30T07:13:35.163Z,101.88
2023-11-30T07:16:01.917Z,101.05
2023-11-30T07:18:28.727Z,100.55
2023-11-30T07:20:55.319Z,104.50
2023-11-30T07:23:21.949Z,103.75
2023-11-30T07:25:48.549Z,106.32
2023-11-30T07:28:15.247Z,102.18
2023-11-30T07:30:43.375Z,101.05
2023-11-30T07:33:11.002Z,101.75
2023-11-30T07:35:41.901Z,103.82
2023-11-30T07:38:08.845Z,104.15
2023-11-30T07:40:35.703Z,105.45
2023-11-30T07:43:02.357Z,102.05
2023-11-30T07:45:32.081Z,102.85
2023-11-30T07:48:00.476Z,99.40
2023-11-30T07:50:28.365Z,101.95
2023-11-30T07:52:55.151Z,100.78
2023-11-30T07:55:22.177Z,100.60
2023-11-30T07:57:49.962Z,100.25
2023-11-30T08:00:17.142Z,100.32
2023-11-30T08:02:44.131Z,103.15
2023-11-30T08:05:13.345Z,102.43
2023-11-30T08:07:40.000Z,102.90
2023-11-30T08:10:07.483Z,106.00
2023-11-30T08:12:34.441Z,98.13
2023-11-30T08:15:01.303Z,103.43
2023-11-30T08:17:28.078Z,100.63
2023-11-30T08:19:54.700Z,99.40
2023-11-30T08:22:21.280Z,106.80
2023-11-30T08:24:47.984Z,99.32
2023-11-30T08:27:14.665Z,102.15
2023-11-30T08:29:42.637Z,105.78
2023-11-30T08:32:09.630Z,98.32
2023-11-30T08:34:36.763Z,106.07
2023-11-30T08:37:03.679Z,99.00
2023-11-30T08:39:31.185Z,100.90
2023-11-30T08:41:57.843Z,99.55
2023-11-30T08:44:24.448Z,100.07
2023-11-30T08:46:51.376Z,99.85
2023-11-30T08:49:18.240Z,100.15
2023-11-30T08:51:45.929Z,101.35
2023-11-30T08:54:12.919Z,100.05
2023-11-30T08:56:39.571Z,99.25
2023-11-30T08:59:06.171Z,96.82
2023-11-30T09:01:33.874Z,95.00
2023-11-30T09:04:05.179Z,97.53
2023-11-30T09:06:34.242Z,101.32
2023-11-30T09:09:01.352Z,99.03
2023-11-30T09:11:31.155Z,96.38
2023-11-30T09:13:58.215Z,95.20
2023-11-30T09:16:26.467Z,95.35
2023-11-30T09:18:55.981Z,97.55
2023-11-30T09:21:24.059Z,97.43
2023-11-30T09:23:51.384Z,97.15
2023-11-30T09:26:21.721Z,97.30
2023-11-30T09:28:48.685Z,99.15
2023-11-30T09:31:15.406Z,95.80
2023-11-30T09:33:43.058Z,95.82
2023-11-30T09:36:10.319Z,97.25
2023-11-30T09:38:36.998Z,98.97
2023-11-30T09:41:06.846Z,97.45
2023-11-30T09:43:33.991Z,97.88
2023-11-30T09:46:00.904Z,95.20
2023-11-30T09:48:27.625Z,98.22
2023-11-30T09:50:54.304Z,99.57
2023-11-30T09:53:21.025Z,97.47
2023-11-30T09:55:47.615Z,96.97
2023-11-30T09:58:16.145Z,98.60
2023-11-30T10:00:43.142Z,96.95
2023-11-30T10:03:10.315Z,98.38
2023-11-30T10:05:37.023Z,94.45
2023-11-30T10:08:04.102Z,98.05
2023-11-30T10:10:30.934Z,97.80
2023-11-30T10:12:57.550Z,97.50
2023-11-30T10:15:24.296Z,97.22
2023-11-30T10:17:51.272Z,96.18
2023-11-30T10:20:19.642Z,96.93
2023-11-30T10:22:46.817Z,95.45
2023-11-30T10:25:14.119Z,98.68
2023-11-30T10:27:42.414Z,95.95
2023-11-30T10:30:12.559Z,96.57
2023-11-30T10:32:40.856Z,97.22
2023-11-30T10:35:09.059Z,97.57
2023-11-30T10:37:42.863Z,94.63
2023-11-30T10:40:11.216Z,95.47
2023-11-30T10:42:38.052Z,98.05
2023-11-30T10:45:07.737Z,97.80
2023-11-30T10:47:36.122Z,97.50
2023-11-30T10:50:06.938Z,98.25
2023-11-30T10:52:35.969Z,98.97
2023-11-30T10:55:08.132Z,95.38
2023-11-30T10:57:34.847Z,97.50
2023-11-30T11:00:02.613Z,95.50
2023-11-30T11:02:39.203Z,96.70
2023-11-30T11:05:09.422Z,99.00
2023-11-30T11:07:36.298Z,96.55
2023-11-30T11:10:07.284Z,95.38
2023-11-30T11:12:38.668Z,96.50
2023-11-30T11:15:14.377Z,95.10
2023-11-30T11:17:55.451Z,95.47
2023-11-30T11:20:30.999Z,95.38
2023-11-30T11:23:03.826Z,96.05
2023-11-30T11:25:35.666Z,99.65
2023-11-30T11:28:02.256Z,96.45
2023-11-30T11:30:29.078Z,97.00
2023-11-30T11:33:00.324Z,93.28
2023-11-30T11:35:27.956Z,95.32
2023-11-30T11:37:59.057Z,99.07
2023-11-30T11:40:27.218Z,96.43
2023-11-30T11:42:54.447Z,95.45
2023-11-30T11:45:22.281Z,95.43
2023-11-30T11:47:49.235Z,94.45
2023-11-30T11:50:16.170Z,94.03
2023-11-30T11:52:42.815Z,97.43
2023-11-30T11:55:12.301Z,96.85
2023-11-30T11:57:40.236Z,97.90
2023-11-30T12:00:14.826Z,95.18
2023-11-30T12:02:41.663Z,96.47
2023-11-30T12:05:09.777Z,96.30
2023-11-30T12:07:37.542Z,95.03
2023-11-30T12:10:05.454Z,97.45
2023-11-30T12:12:36.230Z,92.50
2023-11-30T12:15:03.092Z,95.30
2023-11-30T12:17:29.756Z,94.60
2023-11-30T12:19:56.338Z,96.07
2023-11-30T12:22:22.979Z,94.15
2023-11-30T12:24:49.697Z,94.80
2023-11-30T12:27:16.350Z,96.35
2023-11-30T12:29:43.040Z,97.45
2023-11-30T12:32:09.666Z,93.53
2023-11-30T12:34:36.254Z,94.50
2023-11-30T12:37:03.770Z,92.65
2023-11-30T12:39:30.450Z,91.82
2023-11-30T12:41:59.165Z,93.78
2023-11-30T12:44:25.853Z,93.43
2023-11-30T12:46:52.531Z,96.10
2023-11-30T12:49:19.221Z,94.00
2023-11-30T12:51:45.881Z,92.43
2023-11-30T12:54:13.307Z,92.15
2023-11-30T12:56:40.027Z,92.30
2023-11-30T12:59:06.623Z,95.22
2023-11-30T13:01:33.283Z,95.32
2023-11-30T13:04:01.520Z,92.50
2023-11-30T13:06:28.555Z,93.95
2023-11-30T13:08:55.238Z,100.53
2023-11-30T13:11:22.655Z,93.18
2023-11-30T13:13:49.239Z,95.88
2023-11-30T13:16:15.820Z,100.88
2023-11-30T13:18:43.204Z,94.00
2023-11-30T13:21:10.462Z,96.03
2023-11-30T13:23:37.104Z,94.90
2023-11-30T13:26:03.747Z,94.93
2023-11-30T13:28:37.674Z,95.63
2023-11-30T13:31:07.945Z,99.22
2023-11-30T13:33:35.411Z,94.93
2023-11-30T13:36:02.020Z,97.10
2023-11-30T13:38:28.607Z,93.90
2023-11-30T13:40:55.221Z,95.38
2023-11-30T13:43:23.445Z,95.43
2023-11-30T13:45:50.203Z,96.47
2023-11-30T13:48:17.092Z,97.40
2023-11-30T13:50:52.720Z,93.82
2023-11-30T13:53:23.124Z,96.65
2023-11-30T13:55:49.836Z,96.47
2023-11-30T13:58:16.607Z,97.90
2023-11-30T14:00:43.634Z,96.97
2023-11-30T14:03:10.453Z,96.80
2023-11-30T14:05:37.240Z,96.90
2023-11-30T14:08:04.097Z,95.70
2023-11-30T14:10:30.706Z,97.32
2023-11-30T14:12:57.424Z,95.43
2023-11-30T14:15:24.267Z,96.82
2023-11-30T14:17:51.022Z,98.38
2023-11-30T14:20:17.820Z,99.57
2023-11-30T14:22:44.441Z,97.80
2023-11-30T14:25:13.258Z,97.47
2023-11-30T14:27:39.957Z,99.30
2023-11-30T14:30:10.494Z,100.50
2023-11-30T14:32:39.719Z,98.00
2023-11-30T14:35:07.579Z,96.82
2023-11-30T14:37:34.224Z,96.95
2023-11-30T14:40:00.976Z,101.28
2023-11-30T14:42:27.716Z,100.13
2023-11-30T14:44:54.392Z,110.65
2023-11-30T14:47:26.390Z,101.55
2023-11-30T14:49:53.731Z,100.13
2023-11-30T14:52:20.460Z,100.78
2023-11-30T14:54:52.804Z,102.15
2023-11-30T14:57:20.380Z,102.25
2023-11-30T14:59:50.439Z,102.05
2023-11-30T15:02:17.408Z,99.90
2023-11-30T15:04:44.072Z,98.32
2023-11-30T15:07:10.695Z,99.35
2023-11-30T15:09:37.360Z,103.22
2023-11-30T15:12:07.186Z,103.85
2023-11-30T15:14:33.899Z,99.57
2023-11-30T15:17:00.584Z,105.07
2023-11-30T15:19:27.202Z,99.65
2023-11-30T15:21:53.950Z,102.35
2023-11-30T15:24:20.658Z,106.13
2023-11-30T15:26:47.432Z,104.72
2023-11-30T15:29:14.067Z,102.05
2023-11-30T15:31:40.791Z,104.80
2023-11-30T15:34:07.544Z,105.80
2023-11-30T15:36:34.378Z,103.35
2023-11-30T15:39:12.389Z,107.97
2023-11-30T15:41:43.181Z,104.10
2023-11-30T15:44:09.976Z,110.65
2023-11-30T15:46:36.618Z,106.93
2023-11-30T15:49:03.327Z,108.95
2023-11-30T15:51:30.018Z,108.57
2023-11-30T15:53:56.622Z,100.85
2023-11-30T15:56:23.218Z,104.30
2023-11-30T15:58:49.838Z,101.93
2023-11-30T16:01:16.507Z,106.28
2023-11-30T16:03:43.179Z,102.47
2023-11-30T16:06:12.670Z,107.85
2023-11-30T16:08:39.294Z,103.68
2023-11-30T16:11:13.066Z,103.70
2023-11-30T16:13:40.679Z,105.20
2023-11-30T16:16:07.872Z,102.65
2023-11-30T16:18:35.007Z,110.38
2023-11-30T16:21:01.899Z,105.07
2023-11-30T16:23:28.498Z,102.95
2023-11-30T16:25:55.098Z,105.03
2023-11-30T16:28:22.001Z,110.63
2023-11-30T16:30:48.644Z,107.80
2023-11-30T16:33:15.286Z,105.53
2023-11-30T16:35:41.934Z,109.13
2023-11-30T16:38:08.528Z,105.60
2023-11-30T16:40:35.544Z,104.43
2023-11-30T16:43:02.135Z,102.35
2023-11-30T16:45:29.091Z,104.85
2023-11-30T16:47:55.781Z,107.97
2023-11-30T16:50:22.367Z,103.60
2023-11-30T16:52:49.211Z,102.72
2023-11-30T16:55:15.972Z,104.13
2023-11-30T16:57:43.015Z,103.65
2023-11-30T17:00:10.323Z,104.72
2023-11-30T17:02:36.962Z,102.53
2023-11-30T17:05:03.840Z,104.18
2023-11-30T17:07:30.507Z,102.75
2023-11-30T17:09:58.500Z,102.60
2023-11-30T17:12:25.288Z,108.28
2023-11-30T17:14:51.929Z,99.45
2023-11-30T17:17:18.506Z,103.13
2023-11-30T17:19:45.114Z,102.93
2023-11-30T17:22:12.898Z,101.47
2023-11-30T17:24:42.510Z,103.47
2023-11-30T17:27:09.433Z,103.15
2023-11-30T17:29:38.846Z,102.88
2023-11-30T17:32:09.123Z,101.80
2023-11-30T17:34:39.080Z,105.18
2023-11-30T17:37:05.805Z,101.57
2023-11-30T17:39:32.517Z,110.10
2023-11-30T17:41:59.143Z,104.53
2023-11-30T17:44:26.478Z,107.95
2023-11-30T17:46:53.918Z,110.65
2023-11-30T17:49:23.560Z,100.45
2023-11-30T17:51:51.260Z,103.22
2023-11-30T17:54:18.168Z,100.20
2023-11-30T17:56:45.240Z,103.20
2023-11-30T17:59:11.998Z,104.55
2023-11-30T18:01:38.796Z,99.60
2023-11-30T18:04:05.540Z,104.38
2023-11-30T18:06:32.388Z,100.32
2023-11-30T18:08:58.994Z,107.30
2023-11-30T18:11:25.615Z,102.78
2023-11-30T18:13:52.230Z,100.50
2023-11-30T18:16:19.073Z,107.60
2023-11-30T18:18:45.853Z,104.80
2023-11-30T18:21:13.280Z,104.28
2023-11-30T18:23:39.874Z,107.90
2023-11-30T18:26:06.659Z,109.55
2023-11-30T18:28:33.249Z,109.03
2023-11-30T18:31:11.582Z,104.95
2023-11-30T18:33:43.220Z,103.13
2023-11-30T18:36:10.244Z,106.05
2023-11-30T18:38:43.969Z,106.63
2023-11-30T18:41:17.340Z,104.65
2023-11-30T18:43:44.000Z,103.10
2023-11-30T18:46:10.706Z,102.78
2023-11-30T18:48:37.688Z,102.85
2023-11-30T18:51:06.520Z,102.35
2023-11-30T18:53:33.844Z,101.75
2023-11-30T18:56:01.529Z,102.43
2023-11-30T18:58:28.155Z,99.45
2023-11-30T19:00:55.790Z,112.30
2023-11-30T19:03:23.318Z,104.15
2023-11-30T19:05:50.402Z,104.03
2023-11-30T19:08:17.067Z,101.82
2023-11-30T19:10:43.677Z,104.20
2023-11-30T19:13:10.520Z,98.60
2023-11-30T19:15:39.906Z,100.40
2023-11-30T19:18:06.884Z,105.68
2023-11-30T19:20:33.577Z,101.88
2023-11-30T19:23:00.228Z,104.40
2023-11-30T19:25:26.813Z,101.28
2023-11-30T19:27:55.787Z,99.32
2023-11-30T19:30:22.583Z,99.63
2023-11-30T19:32:49.249Z,103.97
2023-11-30T19:35:16.038Z,103.45
2023-11-30T19:37:42.640Z,100.45
2023-11-30T19:40:09.755Z,104.75
2023-11-30T19:42:36.416Z,102.75
2023-11-30T19:45:03.209Z,102.95
2023-11-30T19:47:29.872Z,109.13
2023-11-30T19:49:56.533Z,104.25
2023-11-30T19:52:23.123Z,101.15
2023-11-30T19:54:49.755Z,104.78
2023-11-30T19:57:16.410Z,101.07
2023-11-30T19:59:43.103Z,104.30
2023-11-30T20:02:09.744Z,108.65
2023-11-30T20:04:36.405Z,107.63
2023-11-30T20:07:03.219Z,102.57
2023-11-30T20:09:29.945Z,104.75
2023-11-30T20:11:56.581Z,100.40
2023-11-30T20:14:23.225Z,102.78
2023-11-30T20:16:49.921Z,107.35
2023-11-30T20:19:16.543Z,100.93
2023-11-30T20:21:43.173Z,101.45
2023-11-30T20:24:09.892Z,102.68
2023-11-30T20:26:40.552Z,109.22
2023-11-30T20:29:07.862Z,104.15
2023-11-30T20:31:34.573Z,101.75
2023-11-30T20:34:02.333Z,107.05
2023-11-30T20:36:29.135Z,103.30
2023-11-30T20:38:56.262Z,106.78
2023-11-30T20:41:25.275Z,100.82
2023-11-30T20:43:54.092Z,108.22
2023-11-30T20:46:21.325Z,103.70
2023-11-30T20:48:48.530Z,101.63
2023-11-30T20:51:18.843Z,103.13
2023-11-30T20:53:46.073Z,106.40
2023-11-30T20:56:12.824Z,105.82
2023-11-30T20:58:39.903Z,103.90
2023-11-30T21:01:07.081Z,104.82
2023-11-30T21:03:33.891Z,114.95
2023-11-30T21:06:01.954Z,103.38
2023-11-30T21:08:29.497Z,104.03
2023-11-30T21:10:56.110Z,100.20
2023-11-30T21:13:22.820Z,105.88
2023-11-30T21:15:49.585Z,101.10
2023-11-30T21:18:16.287Z,108.25
2023-11-30T21:20:42.933Z,103.53
2023-11-30T21:23:09.638Z,100.38
2023-11-30T21:25:36.221Z,100.30
2023-11-30T21:28:02.876Z,110.50
2023-11-30T21:30:29.624Z,104.97
2023-11-30T21:32:56.301Z,103.18
2023-11-30T21:35:22.924Z,108.05
2023-11-30T21:37:49.543Z,105.60
2023-11-30T21:40:16.370Z,105.20
2023-11-30T21:42:43.029Z,108.75
2023-11-30T21:45:09.940Z,102.22
2023-11-30T21:47:36.856Z,108.75
2023-11-30T21:50:19.018Z,106.60
2023-11-30T21:52:47.653Z,105.97
2023-11-30T21:55:15.111Z,105.10
2023-11-30T21:57:42.187Z,118.82
2023-11-30T22:00:13.255Z,108.28
2023-11-30T22:02:41.206Z,110.47
2023-11-30T22:05:08.371Z,103.53
2023-11-30T22:07:35.079Z,104.43
2023-11-30T22:10:03.694Z,105.97
2023-11-30T22:12:33.188Z,105.05
2023-11-30T22:15:01.049Z,105.07
2023-11-30T22:17:28.492Z,106.18
2023-11-30T22:19:55.138Z,114.00
2023-11-30T22:22:21.961Z,107.05
2023-11-30T22:24:48.963Z,104.47
2023-11-30T22:27:15.994Z,108.03
2023-11-30T22:29:42.902Z,102.88
2023-11-30T22:32:09.616Z,107.28
2023-11-30T22:34:36.351Z,103.20
2023-11-30T22:37:03.264Z,104.55
2023-11-30T22:39:30.120Z,109.53
2023-11-30T22:41:56.787Z,103.57
2023-11-30T22:44:23.413Z,103.70
2023-11-30T22:46:50.090Z,104.40
2023-11-30T22:49:17.387Z,103.55
2023-11-30T22:51:44.394Z,106.20
2023-11-30T22:54:11.032Z,106.60
2023-11-30T22:56:37.629Z,100.30
2023-11-30T22:59:04.315Z,102.70
2023-11-30T23:01:31.504Z,104.70
2023-11-30T23:03:58.511Z,103.47
2023-11-30T23:06:25.306Z,105.18
2023-11-30T23:08:52.053Z,109.38
2023-11-30T23:11:18.710Z,109.30
2023-11-30T23:13:45.446Z,102.32
2023-11-30T23:16:12.722Z,104.82
2023-11-30T23:18:39.642Z,103.60
2023-11-30T23:21:06.813Z,106.35
2023-11-30T23:23:33.405Z,102.60
2023-11-30T23:26:00.852Z,103.10
2023-11-30T23:28:27.440Z,105.93
2023-11-30T23:30:54.133Z,105.55
2023-11-30T23:33:20.811Z,103.45
2023-11-30T23:35:47.401Z,107.60
2023-11-30T23:38:14.076Z,103.45
2023-11-30T23:40:40.752Z,105.05
2023-11-30T23:43:07.382Z,106.50
2023-11-30T23:45:34.071Z,104.00
2023-11-30T23:48:00.771Z,106.57
2023-11-30T23:50:27.386Z,104.60
2023-11-30T23:52:53.979Z,105.30
2023-11-30T23:55:20.601Z,104.70
2023-11-30T23:57:47.251Z,101.75
